sensor_id;sensor_type;location;lat;lon;timestamp;P1;durP1;ratioP1;P2;durP2;ratioP2
37789;SDS011;23628;51.434;6.988;2023-04-07T05:41:53;14.35;;;10.25;;
37789;SDS011;23628;51.434;6.988;2023-04-07T05:47:10;13.15;;;9.80;;
37789;SDS011;23628;51.434;6.988;2023-04-07T06:04:15;11.43;;;8.32;;
37789;SDS011;23628;51.434;6.988;2023-04-07T06:09:34;11.30;;;8.05;;
37789;SDS011;23628;51.434;6.988;2023-04-07T06:12:12;9.93;;;8.35;;
37789;SDS011;23628;51.434;6.988;2023-04-07T06:23:03;9.52;;;7.70;;
37789;SDS011;23628;51.434;6.988;2023-04-07T06:28:14;9.77;;;7.90;;
37789;SDS011;23628;51.434;6.988;2023-04-07T06:33:25;9.97;;;7.67;;
37789;SDS011;23628;51.434;6.988;2023-04-07T06:41:38;10.75;;;7.25;;
37789;SDS011;23628;51.434;6.988;2023-04-07T06:46:58;10.40;;;7.40;;
37789;SDS011;23628;51.434;6.988;2023-04-07T06:52:11;10.05;;;6.65;;
37789;SDS011;23628;51.434;6.988;2023-04-07T06:54:47;10.70;;;6.47;;
37789;SDS011;23628;51.434;6.988;2023-04-07T07:02:46;7.22;;;6.53;;
37789;SDS011;23628;51.434;6.988;2023-04-07T07:11:09;11.20;;;6.75;;
37789;SDS011;23628;51.434;6.988;2023-04-07T07:13:45;9.95;;;6.70;;
37789;SDS011;23628;51.434;6.988;2023-04-07T07:19:00;10.88;;;7.70;;
37789;SDS011;23628;51.434;6.988;2023-04-07T07:29:34;9.43;;;7.20;;
37789;SDS011;23628;51.434;6.988;2023-04-07T07:49:30;17.80;;;12.47;;
37789;SDS011;23628;51.434;6.988;2023-04-07T08:03:50;18.95;;;13.98;;
37789;SDS011;23628;51.434;6.988;2023-04-07T08:23:34;14.05;;;10.05;;
37789;SDS011;23628;51.434;6.988;2023-04-07T08:39:57;10.07;;;7.20;;
37789;SDS011;23628;51.434;6.988;2023-04-07T08:45:12;9.63;;;7.47;;
37789;SDS011;23628;51.434;6.988;2023-04-07T08:53:12;10.57;;;8.60;;
37789;SDS011;23628;51.434;6.988;2023-04-07T08:58:22;12.63;;;8.90;;
37789;SDS011;23628;51.434;6.988;2023-04-07T09:07:05;11.63;;;9.18;;
37789;SDS011;23628;51.434;6.988;2023-04-07T09:18:00;13.10;;;10.35;;
37789;SDS011;23628;51.434;6.988;2023-04-07T09:23:33;13.52;;;10.10;;
37789;SDS011;23628;51.434;6.988;2023-04-07T10:11:06;8.52;;;7.15;;
37789;SDS011;23628;51.434;6.988;2023-04-07T10:16:17;10.15;;;7.50;;
37789;SDS011;23628;51.434;6.988;2023-04-07T10:21:34;10.73;;;8.30;;
37789;SDS011;23628;51.434;6.988;2023-04-07T10:29:34;13.30;;;8.95;;
37789;SDS011;23628;51.434;6.988;2023-04-07T10:37:39;10.90;;;7.80;;
37789;SDS011;23628;51.434;6.988;2023-04-07T10:42:53;11.60;;;9.00;;
37789;SDS011;23628;51.434;6.988;2023-04-07T10:48:08;13.63;;;8.80;;
37789;SDS011;23628;51.434;6.988;2023-04-07T10:59:14;10.90;;;7.47;;
37789;SDS011;23628;51.434;6.988;2023-04-07T11:04:25;9.15;;;7.10;;
37789;SDS011;23628;51.434;6.988;2023-04-07T11:09:48;8.60;;;6.67;;
37789;SDS011;23628;51.434;6.988;2023-04-07T11:37:29;9.27;;;7.40;;
37789;SDS011;23628;51.434;6.988;2023-04-07T11:47:58;12.30;;;8.77;;
37789;SDS011;23628;51.434;6.988;2023-04-07T11:53:08;10.93;;;8.35;;
37789;SDS011;23628;51.434;6.988;2023-04-07T11:55:44;9.27;;;7.87;;
37789;SDS011;23628;51.434;6.988;2023-04-07T11:58:20;12.60;;;8.35;;
37789;SDS011;23628;51.434;6.988;2023-04-07T12:00:57;9.95;;;8.27;;
37789;SDS011;23628;51.434;6.988;2023-04-07T12:06:25;11.80;;;8.05;;
37789;SDS011;23628;51.434;6.988;2023-04-07T12:11:36;11.60;;;7.47;;
37789;SDS011;23628;51.434;6.988;2023-04-07T12:14:14;9.68;;;7.63;;
37789;SDS011;23628;51.434;6.988;2023-04-07T12:19:24;11.20;;;6.80;;
37789;SDS011;23628;51.434;6.988;2023-04-07T12:22:06;9.32;;;6.93;;
37789;SDS011;23628;51.434;6.988;2023-04-07T12:24:33;9.13;;;6.60;;
37789;SDS011;23628;51.434;6.988;2023-04-07T12:29:45;10.13;;;6.93;;
37789;SDS011;23628;51.434;6.988;2023-04-07T12:32:21;11.45;;;7.35;;
37789;SDS011;23628;51.434;6.988;2023-04-07T12:37:34;9.35;;;6.90;;
37789;SDS011;23628;51.434;6.988;2023-04-07T12:43:04;8.98;;;7.65;;
37789;SDS011;23628;51.434;6.988;2023-04-07T12:45:40;14.00;;;9.23;;
37789;SDS011;23628;51.434;6.988;2023-04-07T12:50:52;10.80;;;8.82;;
37789;SDS011;23628;51.434;6.988;2023-04-07T12:56:03;12.15;;;9.65;;
37789;SDS011;23628;51.434;6.988;2023-04-07T12:58:41;13.77;;;9.53;;
37789;SDS011;23628;51.434;6.988;2023-04-07T13:03:53;12.13;;;9.90;;
37789;SDS011;23628;51.434;6.988;2023-04-07T13:09:06;13.33;;;9.70;;
37789;SDS011;23628;51.434;6.988;2023-04-07T13:14:18;11.73;;;9.90;;
37789;SDS011;23628;51.434;6.988;2023-04-07T13:16:54;10.60;;;8.60;;
37789;SDS011;23628;51.434;6.988;2023-04-07T13:22:05;13.48;;;10.48;;
37789;SDS011;23628;51.434;6.988;2023-04-07T13:27:17;11.20;;;8.63;;
37789;SDS011;23628;51.434;6.988;2023-04-07T13:32:27;13.80;;;8.90;;
37789;SDS011;23628;51.434;6.988;2023-04-07T13:35:03;10.95;;;8.90;;
37789;SDS011;23628;51.434;6.988;2023-04-07T13:40:14;13.90;;;9.55;;
37789;SDS011;23628;51.434;6.988;2023-04-07T13:42:52;12.23;;;9.83;;
37789;SDS011;23628;51.434;6.988;2023-04-07T13:48:04;13.45;;;9.45;;
37789;SDS011;23628;51.434;6.988;2023-04-07T13:53:17;5.43;;;4.65;;
37789;SDS011;23628;51.434;6.988;2023-04-07T13:58:30;5.82;;;4.03;;
37789;SDS011;23628;51.434;6.988;2023-04-07T14:01:06;3.78;;;3.42;;
37789;SDS011;23628;51.434;6.988;2023-04-07T14:06:23;5.45;;;4.20;;
37789;SDS011;23628;51.434;6.988;2023-04-07T14:11:35;4.27;;;3.30;;
37789;SDS011;23628;51.434;6.988;2023-04-07T14:14:11;3.88;;;3.58;;
37789;SDS011;23628;51.434;6.988;2023-04-07T14:19:21;3.90;;;3.30;;
37789;SDS011;23628;51.434;6.988;2023-04-07T14:24:32;3.90;;;3.50;;
37789;SDS011;23628;51.434;6.988;2023-04-07T14:29:42;4.22;;;3.83;;
37789;SDS011;23628;51.434;6.988;2023-04-07T14:34:54;3.83;;;3.50;;
37789;SDS011;23628;51.434;6.988;2023-04-07T14:40:05;5.97;;;3.65;;
37789;SDS011;23628;51.434;6.988;2023-04-07T14:45:17;4.00;;;3.70;;
37789;SDS011;23628;51.434;6.988;2023-04-07T14:50:30;3.75;;;3.40;;
37789;SDS011;23628;51.434;6.988;2023-04-07T14:53:07;5.55;;;3.70;;
37789;SDS011;23628;51.434;6.988;2023-04-07T14:58:18;4.32;;;3.63;;
37789;SDS011;23628;51.434;6.988;2023-04-07T15:03:31;4.50;;;3.90;;
37789;SDS011;23628;51.434;6.988;2023-04-07T15:08:42;4.20;;;3.90;;
37789;SDS011;23628;51.434;6.988;2023-04-07T15:13:52;5.03;;;4.53;;
37789;SDS011;23628;51.434;6.988;2023-04-07T15:21:47;5.30;;;4.57;;
37789;SDS011;23628;51.434;6.988;2023-04-07T15:24:25;5.37;;;4.90;;
37789;SDS011;23628;51.434;6.988;2023-04-07T15:27:01;5.20;;;4.70;;
37789;SDS011;23628;51.434;6.988;2023-04-07T15:32:13;4.87;;;4.47;;
37789;SDS011;23628;51.434;6.988;2023-04-07T15:34:49;4.72;;;4.20;;
37789;SDS011;23628;51.434;6.988;2023-04-07T15:39:59;4.97;;;4.47;;
37789;SDS011;23628;51.434;6.988;2023-04-07T15:45:15;5.60;;;5.00;;
37789;SDS011;23628;51.434;6.988;2023-04-07T15:50:26;7.30;;;6.00;;
37789;SDS011;23628;51.434;6.988;2023-04-07T15:53:03;6.73;;;6.13;;
37789;SDS011;23628;51.434;6.988;2023-04-07T15:58:14;8.90;;;7.70;;
37789;SDS011;23628;51.434;6.988;2023-04-07T16:03:25;8.90;;;7.93;;
